sensor_id;sensor_type;location;lat;lon;timestamp;pressure;altitude;pressure_sealevel;temperature;humidity
17785;BME280;9016;53.582;10.062;2023-05-21T00:02:27;102052.72;;;14.72;66.34
17785;BME280;9016;53.582;10.062;2023-05-21T00:04:57;102055.94;;;14.79;66.23
17785;BME280;9016;53.582;10.062;2023-05-21T00:07:25;102047.53;;;14.69;66.64
17785;BME280;9016;53.582;10.062;2023-05-21T00:09:55;102048.31;;;14.71;66.58
17785;BME280;9016;53.582;10.062;2023-05-21T00:12:23;102040.78;;;14.62;66.88
17785;BME280;9016;53.582;10.062;2023-05-21T00:14:52;102042.00;;;14.57;66.77
17785;BME280;9016;53.582;10.062;2023-05-21T00:17:20;102033.50;;;14.49;67.36
17785;BME280;9016;53.582;10.062;2023-05-21T00:19:49;102041.81;;;14.60;66.92
17785;BME280;9016;53.582;10.062;2023-05-21T00:22:17;102033.50;;;14.49;66.77
17785;BME280;9016;53.582;10.062;2023-05-21T00:24:45;102033.75;;;14.44;67.63
17785;BME280;9016;53.582;10.062;2023-05-21T00:27:15;102030.72;;;14.50;67.34
17785;BME280;9016;53.582;10.062;2023-05-21T00:29:45;102039.38;;;14.40;67.75
17785;BME280;9016;53.582;10.062;2023-05-21T00:32:13;102030.63;;;14.36;67.53
17785;BME280;9016;53.582;10.062;2023-05-21T00:34:41;102024.16;;;14.40;67.66
17785;BME280;9016;53.582;10.062;2023-05-21T00:37:10;102025.78;;;14.43;67.44
17785;BME280;9016;53.582;10.062;2023-05-21T00:39:40;102031.06;;;14.44;67.75
17785;BME280;9016;53.582;10.062;2023-05-21T00:42:09;102020.34;;;14.44;67.41
17785;BME280;9016;53.582;10.062;2023-05-21T00:44:39;102027.44;;;14.45;67.36
17785;BME280;9016;53.582;10.062;2023-05-21T00:47:07;102018.09;;;14.37;67.53
17785;BME280;9016;53.582;10.062;2023-05-21T00:49:35;102023.22;;;14.24;68.13
17785;BME280;9016;53.582;10.062;2023-05-21T00:52:04;102024.91;;;14.27;68.26
17785;BME280;9016;53.582;10.062;2023-05-21T00:54:32;102019.56;;;14.27;68.28
17785;BME280;9016;53.582;10.062;2023-05-21T00:57:02;102017.75;;;14.27;68.54
17785;BME280;9016;53.582;10.062;2023-05-21T00:59:31;102019.91;;;14.36;68.80
17785;BME280;9016;53.582;10.062;2023-05-21T01:02:00;102016.63;;;14.31;68.35
17785;BME280;9016;53.582;10.062;2023-05-21T01:04:31;102013.44;;;14.40;67.97
17785;BME280;9016;53.582;10.062;2023-05-21T01:06:59;102020.44;;;14.43;67.97
17785;BME280;9016;53.582;10.062;2023-05-21T01:09:27;102001.56;;;14.29;67.94
17785;BME280;9016;53.582;10.062;2023-05-21T01:11:56;102017.88;;;14.24;68.16
17785;BME280;9016;53.582;10.062;2023-05-21T01:14:26;102009.81;;;14.24;68.71
17785;BME280;9016;53.582;10.062;2023-05-21T01:16:55;102013.38;;;14.25;68.93
17785;BME280;9016;53.582;10.062;2023-05-21T01:19:25;102014.38;;;14.39;68.30
17785;BME280;9016;53.582;10.062;2023-05-21T01:22:02;102012.03;;;14.33;68.31
17785;BME280;9016;53.582;10.062;2023-05-21T01:24:32;102007.91;;;14.26;68.43
17785;BME280;9016;53.582;10.062;2023-05-21T01:27:01;102008.69;;;14.13;69.26
17785;BME280;9016;53.582;10.062;2023-05-21T01:29:32;102012.59;;;14.23;68.94
17785;BME280;9016;53.582;10.062;2023-05-21T01:32:04;102010.78;;;14.23;68.74
17785;BME280;9016;53.582;10.062;2023-05-21T01:34:41;102010.59;;;14.26;68.60
17785;BME280;9016;53.582;10.062;2023-05-21T01:37:22;101998.16;;;14.25;69.28
17785;BME280;9016;53.582;10.062;2023-05-21T01:39:59;102002.44;;;14.29;68.84
17785;BME280;9016;53.582;10.062;2023-05-21T01:42:31;102008.19;;;14.22;68.96
17785;BME280;9016;53.582;10.062;2023-05-21T01:45:02;102005.03;;;14.31;68.79
17785;BME280;9016;53.582;10.062;2023-05-21T01:47:34;101995.94;;;14.33;68.80
17785;BME280;9016;53.582;10.062;2023-05-21T01:50:04;102002.84;;;14.37;68.44
17785;BME280;9016;53.582;10.062;2023-05-21T01:52:32;101996.81;;;14.34;68.59
17785;BME280;9016;53.582;10.062;2023-05-21T01:55:03;101991.94;;;14.25;69.29
17785;BME280;9016;53.582;10.062;2023-05-21T01:57:31;101996.50;;;14.23;69.36
17785;BME280;9016;53.582;10.062;2023-05-21T02:00:03;101996.91;;;14.15;69.96
17785;BME280;9016;53.582;10.062;2023-05-21T02:02:31;101990.25;;;14.22;69.46
17785;BME280;9016;53.582;10.062;2023-05-21T02:04:59;101990.25;;;14.22;69.74
17785;BME280;9016;53.582;10.062;2023-05-21T02:07:27;101988.03;;;14.15;69.66
17785;BME280;9016;53.582;10.062;2023-05-21T02:09:58;101982.03;;;14.10;70.68
17785;BME280;9016;53.582;10.062;2023-05-21T02:12:29;101984.81;;;14.08;70.85
17785;BME280;9016;53.582;10.062;2023-05-21T02:14:58;101987.31;;;14.11;70.53
17785;BME280;9016;53.582;10.062;2023-05-21T02:17:26;101985.59;;;14.10;70.68
17785;BME280;9016;53.582;10.062;2023-05-21T02:19:56;101992.53;;;14.14;70.87
17785;BME280;9016;53.582;10.062;2023-05-21T02:22:32;101980.69;;;14.18;71.00
17785;BME280;9016;53.582;10.062;2023-05-21T02:25:01;101981.28;;;14.23;70.18
17785;BME280;9016;53.582;10.062;2023-05-21T02:27:31;101972.88;;;14.14;70.55
17785;BME280;9016;53.582;10.062;2023-05-21T02:30:01;101973.50;;;14.03;71.63
17785;BME280;9016;53.582;10.062;2023-05-21T02:32:29;101971.91;;;13.99;71.66
17785;BME280;9016;53.582;10.062;2023-05-21T02:34:58;101971.50;;;14.07;71.96
17785;BME280;9016;53.582;10.062;2023-05-21T02:37:27;101963.56;;;14.05;71.60
17785;BME280;9016;53.582;10.062;2023-05-21T02:39:55;101960.81;;;13.89;72.47
17785;BME280;9016;53.582;10.062;2023-05-21T02:42:23;101957.13;;;13.92;72.37
17785;BME280;9016;53.582;10.062;2023-05-21T02:44:53;101948.03;;;13.94;72.22
17785;BME280;9016;53.582;10.062;2023-05-21T02:47:21;101957.28;;;13.89;72.55
17785;BME280;9016;53.582;10.062;2023-05-21T02:49:50;101955.47;;;13.89;72.82
17785;BME280;9016;53.582;10.062;2023-05-21T02:52:19;101953.66;;;13.90;72.96
17785;BME280;9016;53.582;10.062;2023-05-21T02:54:50;101950.38;;;13.85;73.13
17785;BME280;9016;53.582;10.062;2023-05-21T02:57:18;101950.63;;;13.80;73.70
17785;BME280;9016;53.582;10.062;2023-05-21T02:59:46;101947.84;;;13.82;73.88
17785;BME280;9016;53.582;10.062;2023-05-21T03:02:16;101941.47;;;13.84;73.77
17785;BME280;9016;53.582;10.062;2023-05-21T03:04:44;101937.41;;;13.77;73.97
17785;BME280;9016;53.582;10.062;2023-05-21T03:07:14;101935.84;;;13.89;73.63
17785;BME280;9016;53.582;10.062;2023-05-21T03:09:45;101939.47;;;13.88;73.96
17785;BME280;9016;53.582;10.062;2023-05-21T03:12:13;101937.41;;;13.77;74.90
17785;BME280;9016;53.582;10.062;2023-05-21T03:14:41;101937.53;;;13.74;75.00
17785;BME280;9016;53.582;10.062;2023-05-21T03:17:12;101937.41;;;13.77;74.77
17785;BME280;9016;53.582;10.062;2023-05-21T03:19:44;101953.13;;;13.83;74.78
17785;BME280;9016;53.582;10.062;2023-05-21T03:22:12;101943.00;;;13.73;75.23
17785;BME280;9016;53.582;10.062;2023-05-21T03:24:40;101949.59;;;13.83;74.73
17785;BME280;9016;53.582;10.062;2023-05-21T03:27:08;101940.59;;;13.84;74.81
17785;BME280;9016;53.582;10.062;2023-05-21T03:29:36;101948.53;;;13.85;75.17
17785;BME280;9016;53.582;10.062;2023-05-21T03:32:06;101939.38;;;13.74;75.18
17785;BME280;9016;53.582;10.062;2023-05-21T03:34:36;101947.75;;;13.83;75.17
17785;BME280;9016;53.582;10.062;2023-05-21T03:37:05;101943.59;;;13.78;75.31
17785;BME280;9016;53.582;10.062;2023-05-21T03:39:33;101940.88;;;13.79;75.51
17785;BME280;9016;53.582;10.062;2023-05-21T03:42:02;101940.88;;;13.79;75.82
17785;BME280;9016;53.582;10.062;2023-05-21T03:44:30;101940.31;;;13.73;76.15
17785;BME280;9016;53.582;10.062;2023-05-21T03:46:58;101938.97;;;13.81;76.22
17785;BME280;9016;53.582;10.062;2023-05-21T03:49:26;101933.56;;;13.66;76.62
17785;BME280;9016;53.582;10.062;2023-05-21T03:51:55;101936.53;;;13.77;76.73
17785;BME280;9016;53.582;10.062;2023-05-21T03:54:24;101927.06;;;13.87;75.86
17785;BME280;9016;53.582;10.062;2023-05-21T03:56:52;101928.94;;;13.85;75.72
17785;BME280;9016;53.582;10.062;2023-05-21T03:59:21;101924.28;;;13.88;76.41
17785;BME280;9016;53.582;10.062;2023-05-21T04:01:49;101925.66;;;13.96;76.31
17785;BME280;9016;53.582;10.062;2023-05-21T04:04:17;101917.28;;;14.02;76.12
17785;BME280;9016;53.582;10.062;2023-05-21T04:06:49;101925.25;;;14.03;75.57
17785;BME280;9016;53.582;10.062;2023-05-21T04:09:17;101925.84;;;14.08;76.18
17785;BME280;9016;53.582;10.062;2023-05-21T04:11:47;101925.31;;;14.17;75.43
17785;BME280;9016;53.582;10.062;2023-05-21T04:14:15;101916.94;;;14.23;75.01
17785;BME280;9016;53.582;10.062;2023-05-21T04:16:45;101917.13;;;14.36;75.13
17785;BME280;9016;53.582;10.062;2023-05-21T04:19:14;101921.47;;;14.38;74.65
17785;BME280;9016;53.582;10.062;2023-05-21T04:21:43;101922.75;;;14.47;75.03
17785;BME280;9016;53.582;10.062;2023-05-21T04:24:11;101906.94;;;14.42;75.00
17785;BME280;9016;53.582;10.062;2023-05-21T04:26:39;101916.59;;;14.45;74.69
17785;BME280;9016;53.582;10.062;2023-05-21T04:29:09;101919.63;;;14.54;74.37
17785;BME280;9016;53.582;10.062;2023-05-21T04:31:37;101908.72;;;14.57;73.71
17785;BME280;9016;53.582;10.062;2023-05-21T04:34:05;101920.13;;;14.61;74.65
17785;BME280;9016;53.582;10.062;2023-05-21T04:36:34;101915.88;;;14.72;74.27
17785;BME280;9016;53.582;10.062;2023-05-21T04:39:02;101916.66;;;14.74;73.63
17785;BME280;9016;53.582;10.062;2023-05-21T04:41:31;101910.06;;;14.80;74.71
17785;BME280;9016;53.582;10.062;2023-05-21T04:44:02;101916.91;;;15.00;73.11
17785;BME280;9016;53.582;10.062;2023-05-21T04:46:31;101915.97;;;15.01;72.72
17785;BME280;9016;53.582;10.062;2023-05-21T04:49:01;101908.63;;;15.18;72.67
17785;BME280;9016;53.582;10.062;2023-05-21T04:51:29;101913.22;;;15.16;72.75
17785;BME280;9016;53.582;10.062;2023-05-21T04:53:58;101915.81;;;15.18;73.36
17785;BME280;9016;53.582;10.062;2023-05-21T04:56:26;101909.47;;;15.19;72.73
17785;BME280;9016;53.582;10.062;2023-05-21T04:58:58;101918.13;;;15.24;72.53
17785;BME280;9016;53.582;10.062;2023-05-21T05:01:32;101908.66;;;15.32;72.61
17785;BME280;9016;53.582;10.062;2023-05-21T05:04:01;101910.28;;;15.35;72.47
17785;BME280;9016;53.582;10.062;2023-05-21T05:06:30;101911.00;;;15.52;71.36
17785;BME280;9016;53.582;10.062;2023-05-21T05:08:58;101913.69;;;15.52;71.94
17785;BME280;9016;53.582;10.062;2023-05-21T05:11:26;101912.75;;;15.67;71.55
17785;BME280;9016;53.582;10.062;2023-05-21T05:13:54;101911.09;;;15.65;71.15
17785;BME280;9016;53.582;10.062;2023-05-21T05:16:22;101914.19;;;15.73;71.04
17785;BME280;9016;53.582;10.062;2023-05-21T05:18:53;101911.94;;;15.79;71.15
17785;BME280;9016;53.582;10.062;2023-05-21T05:21:22;101908.38;;;15.79;71.32
17785;BME280;9016;53.582;10.062;2023-05-21T05:23:50;101907.72;;;15.75;71.56
17785;BME280;9016;53.582;10.062;2023-05-21T05:26:18;101911.28;;;15.76;71.30
17785;BME280;9016;53.582;10.062;2023-05-21T05:28:46;101907.44;;;15.80;70.86
17785;BME280;9016;53.582;10.062;2023-05-21T05:31:15;101912.25;;;15.75;70.81
17785;BME280;9016;53.582;10.062;2023-05-21T05:33:43;101909.75;;;15.58;71.90
17785;BME280;9016;53.582;10.062;2023-05-21T05:36:12;101908.69;;;15.74;71.77
17785;BME280;9016;53.582;10.062;2023-05-21T05:38:40;101913.88;;;15.92;71.39
17785;BME280;9016;53.582;10.062;2023-05-21T05:41:09;101917.22;;;15.95;71.64
17785;BME280;9016;53.582;10.062;2023-05-21T05:43:36;101920.94;;;16.21;70.90
17785;BME280;9016;53.582;10.062;2023-05-21T05:46:04;101907.66;;;16.18;70.63
17785;BME280;9016;53.582;10.062;2023-05-21T05:48:34;101919.06;;;16.35;69.54
17785;BME280;9016;53.582;10.062;2023-05-21T05:51:02;101913.81;;;16.60;69.06
17785;BME280;9016;53.582;10.062;2023-05-21T05:53:32;101908.03;;;16.66;68.55
17785;BME280;9016;53.582;10.062;2023-05-21T05:56:01;101901.84;;;16.91;68.31
17785;BME280;9016;53.582;10.062;2023-05-21T05:58:29;101915.22;;;17.05;67.85
17785;BME280;9016;53.582;10.062;2023-05-21T06:00:57;101902.34;;;17.23;67.09
17785;BME280;9016;53.582;10.062;2023-05-21T06:03:25;101907.41;;;17.40;66.19
17785;BME280;9016;53.582;10.062;2023-05-21T06:05:54;101897.72;;;17.62;65.46
17785;BME280;9016;53.582;10.062;2023-05-21T06:08:22;101900.72;;;17.58;65.48
17785;BME280;9016;53.582;10.062;2023-05-21T06:10:54;101901.72;;;17.57;65.20
17785;BME280;9016;53.582;10.062;2023-05-21T06:13:22;101898.16;;;17.56;65.85
17785;BME280;9016;53.582;10.062;2023-05-21T06:15:49;101891.78;;;17.45;66.19
17785;BME280;9016;53.582;10.062;2023-05-21T06:18:18;101902.44;;;17.84;65.80
17785;BME280;9016;53.582;10.062;2023-05-21T06:20:46;101892.72;;;18.30;64.31
17785;BME280;9016;53.582;10.062;2023-05-21T06:23:14;101897.16;;;18.31;63.80
17785;BME280;9016;53.582;10.062;2023-05-21T06:25:42;101904.00;;;18.35;63.20
17785;BME280;9016;53.582;10.062;2023-05-21T06:28:12;101900.84;;;18.54;63.15
17785;BME280;9016;53.582;10.062;2023-05-21T06:30:40;101896.03;;;19.05;61.17
17785;BME280;9016;53.582;10.062;2023-05-21T06:33:08;101902.06;;;20.20;59.39
17785;BME280;9016;53.582;10.062;2023-05-21T06:35:37;101889.00;;;21.00;55.99
17785;BME280;9016;53.582;10.062;2023-05-21T06:38:08;101891.78;;;21.60;54.67
17785;BME280;9016;53.582;10.062;2023-05-21T06:40:36;101896.28;;;21.40;54.04
17785;BME280;9016;53.582;10.062;2023-05-21T06:43:04;101901.59;;;21.01;53.74
17785;BME280;9016;53.582;10.062;2023-05-21T06:45:34;101899.53;;;20.82;55.07
17785;BME280;9016;53.582;10.062;2023-05-21T06:48:03;101898.94;;;20.47;55.52
17785;BME280;9016;53.582;10.062;2023-05-21T06:50:31;101889.09;;;20.35;56.91
17785;BME280;9016;53.582;10.062;2023-05-21T06:53:02;101890.97;;;20.34;56.79
17785;BME280;9016;53.582;10.062;2023-05-21T06:55:32;101886.97;;;20.49;56.76
17785;BME280;9016;53.582;10.062;2023-05-21T06:58:01;101892.88;;;20.54;57.02
17785;BME280;9016;53.582;10.062;2023-05-21T07:00:29;101886.19;;;20.90;56.29
17785;BME280;9016;53.582;10.062;2023-05-21T07:02:59;101880.66;;;20.92;55.91
17785;BME280;9016;53.582;10.062;2023-05-21T07:05:28;101881.84;;;20.99;55.57
17785;BME280;9016;53.582;10.062;2023-05-21T07:07:59;101884.75;;;20.86;55.82
17785;BME280;9016;53.582;10.062;2023-05-21T07:10:27;101888.66;;;20.93;56.18
17785;BME280;9016;53.582;10.062;2023-05-21T07:12:55;101884.25;;;21.13;55.82
17785;BME280;9016;53.582;10.062;2023-05-21T07:15:23;101878.38;;;21.28;55.18
17785;BME280;9016;53.582;10.062;2023-05-21T07:17:51;101882.84;;;21.39;55.07
17785;BME280;9016;53.582;10.062;2023-05-21T07:20:21;101882.94;;;21.28;55.54
17785;BME280;9016;53.582;10.062;2023-05-21T07:22:51;101882.41;;;21.34;55.18
17785;BME280;9016;53.582;10.062;2023-05-21T07:25:20;101880.19;;;21.48;54.55
17785;BME280;9016;53.582;10.062;2023-05-21T07:27:48;101881.31;;;21.76;54.44
17785;BME280;9016;53.582;10.062;2023-05-21T07:30:17;101873.31;;;21.75;53.72
17785;BME280;9016;53.582;10.062;2023-05-21T07:32:45;101880.69;;;21.84;53.45
17785;BME280;9016;53.582;10.062;2023-05-21T07:35:14;101880.09;;;22.29;53.51
17785;BME280;9016;53.582;10.062;2023-05-21T07:37:43;101875.72;;;22.95;52.09
17785;BME280;9016;53.582;10.062;2023-05-21T07:40:12;101872.44;;;23.11;50.76
17785;BME280;9016;53.582;10.062;2023-05-21T07:42:40;101869.63;;;23.49;49.92
17785;BME280;9016;53.582;10.062;2023-05-21T07:45:10;101863.19;;;23.87;48.83
17785;BME280;9016;53.582;10.062;2023-05-21T07:47:43;101858.69;;;24.22;48.00
17785;BME280;9016;53.582;10.062;2023-05-21T07:50:12;101854.78;;;24.70;47.45
17785;BME280;9016;53.582;10.062;2023-05-21T07:52:40;101862.34;;;24.76;45.75
17785;BME280;9016;53.582;10.062;2023-05-21T07:55:10;101853.84;;;25.22;45.54
17785;BME280;9016;53.582;10.062;2023-05-21T07:57:43;101863.06;;;25.72;44.45
17785;BME280;9016;53.582;10.062;2023-05-21T08:00:13;101859.50;;;26.05;44.32
17785;BME280;9016;53.582;10.062;2023-05-21T08:02:41;101856.69;;;25.97;44.26
17785;BME280;9016;53.582;10.062;2023-05-21T08:05:09;101846.09;;;25.94;43.94
17785;BME280;9016;53.582;10.062;2023-05-21T08:07:38;101850.00;;;26.41;43.37
17785;BME280;9016;53.582;10.062;2023-05-21T08:10:07;101849.88;;;26.51;43.21
17785;BME280;9016;53.582;10.062;2023-05-21T08:12:37;101852.19;;;26.22;42.79
17785;BME280;9016;53.582;10.062;2023-05-21T08:15:06;101853.91;;;25.81;44.15
17785;BME280;9016;53.582;10.062;2023-05-21T08:17:34;101848.56;;;25.72;44.82
17785;BME280;9016;53.582;10.062;2023-05-21T08:20:03;101844.19;;;25.79;44.71
17785;BME280;9016;53.582;10.062;2023-05-21T08:22:31;101840.06;;;26.16;44.18
17785;BME280;9016;53.582;10.062;2023-05-21T08:24:59;101840.03;;;26.08;44.18
17785;BME280;9016;53.582;10.062;2023-05-21T08:27:27;101841.31;;;25.96;44.36
17785;BME280;9016;53.582;10.062;2023-05-21T08:29:57;101838.78;;;26.03;43.69
17785;BME280;9016;53.582;10.062;2023-05-21T08:32:25;101840.59;;;25.86;44.59
17785;BME280;9016;53.582;10.062;2023-05-21T08:34:53;101841.59;;;25.43;45.80
17785;BME280;9016;53.582;10.062;2023-05-21T08:37:21;101847.06;;;25.43;46.08
17785;BME280;9016;53.582;10.062;2023-05-21T08:39:49;101840.03;;;25.41;46.07
17785;BME280;9016;53.582;10.062;2023-05-21T08:42:31;101848.41;;;25.47;45.88
17785;BME280;9016;53.582;10.062;2023-05-21T08:45:05;101847.25;;;25.50;45.60
17785;BME280;9016;53.582;10.062;2023-05-21T08:47:35;101840.03;;;25.23;46.32
17785;BME280;9016;53.582;10.062;2023-05-21T08:50:04;101838.53;;;25.03;47.54
17785;BME280;9016;53.582;10.062;2023-05-21T08:52:34;101842.84;;;25.06;47.60
17785;BME280;9016;53.582;10.062;2023-05-21T08:55:02;101833.50;;;24.91;47.96
17785;BME280;9016;53.582;10.062;2023-05-21T08:57:33;101834.03;;;24.59;48.87
17785;BME280;9016;53.582;10.062;2023-05-21T09:00:03;101836.47;;;24.27;50.13
17785;BME280;9016;53.582;10.062;2023-05-21T09:02:34;101840.81;;;23.83;51.01
17785;BME280;9016;53.582;10.062;2023-05-21T09:05:08;101841.66;;;23.93;50.93
17785;BME280;9016;53.582;10.062;2023-05-21T09:07:41;101832.88;;;24.26;50.79
17785;BME280;9016;53.582;10.062;2023-05-21T09:10:12;101835.75;;;24.42;50.37
17785;BME280;9016;53.582;10.062;2023-05-21T09:12:40;101832.09;;;24.34;50.58
17785;BME280;9016;53.582;10.062;2023-05-21T09:15:09;101827.59;;;24.25;51.36
17785;BME280;9016;53.582;10.062;2023-05-21T09:17:38;101837.44;;;24.08;51.51
17785;BME280;9016;53.582;10.062;2023-05-21T09:20:09;101833.31;;;24.04;51.22
17785;BME280;9016;53.582;10.062;2023-05-21T09:22:39;101829.25;;;23.81;52.72
17785;BME280;9016;53.582;10.062;2023-05-21T09:25:09;101840.38;;;23.88;52.43
17785;BME280;9016;53.582;10.062;2023-05-21T09:27:38;101840.75;;;24.02;52.65
17785;BME280;9016;53.582;10.062;2023-05-21T09:30:09;101838.88;;;23.76;53.03
17785;BME280;9016;53.582;10.062;2023-05-21T09:32:40;101840.22;;;23.89;52.93
17785;BME280;9016;53.582;10.062;2023-05-21T09:35:09;101842.44;;;23.76;53.24
17785;BME280;9016;53.582;10.062;2023-05-21T09:37:39;101836.91;;;24.22;52.45
17785;BME280;9016;53.582;10.062;2023-05-21T09:40:11;101837.16;;;24.46;51.78
17785;BME280;9016;53.582;10.062;2023-05-21T09:42:45;101843.53;;;24.20;52.34
17785;BME280;9016;53.582;10.062;2023-05-21T09:45:17;101838.56;;;24.50;51.92
17785;BME280;9016;53.582;10.062;2023-05-21T09:47:47;101847.38;;;24.80;51.42
17785;BME280;9016;53.582;10.062;2023-05-21T09:50:17;101841.50;;;25.10;50.83
17785;BME280;9016;53.582;10.062;2023-05-21T09:52:47;101840.09;;;25.06;50.57
17785;BME280;9016;53.582;10.062;2023-05-21T09:55:16;101838.19;;;25.24;50.66
17785;BME280;9016;53.582;10.062;2023-05-21T09:57:45;101838.06;;;25.33;49.85
17785;BME280;9016;53.582;10.062;2023-05-21T10:00:18;101838.31;;;25.40;49.70
17785;BME280;9016;53.582;10.062;2023-05-21T10:02:52;101834.25;;;25.44;50.38
17785;BME280;9016;53.582;10.062;2023-05-21T10:05:25;101821.88;;;25.58;50.30
17785;BME280;9016;53.582;10.062;2023-05-21T10:07:56;101826.91;;;25.78;49.79
17785;BME280;9016;53.582;10.062;2023-05-21T10:10:27;101822.16;;;25.80;49.18
17785;BME280;9016;53.582;10.062;2023-05-21T10:12:58;101814.78;;;26.14;48.92
17785;BME280;9016;53.582;10.062;2023-05-21T10:15:31;101815.41;;;26.00;49.40
17785;BME280;9016;53.582;10.062;2023-05-21T10:18:02;101815.88;;;26.37;48.46
17785;BME280;9016;53.582;10.062;2023-05-21T10:20:31;101807.22;;;26.74;48.25
17785;BME280;9016;53.582;10.062;2023-05-21T10:23:03;101813.84;;;26.88;47.06
17785;BME280;9016;53.582;10.062;2023-05-21T10:25:31;101805.63;;;27.12;46.41
17785;BME280;9016;53.582;10.062;2023-05-21T10:28:00;101809.38;;;27.03;46.89
17785;BME280;9016;53.582;10.062;2023-05-21T10:30:28;101803.94;;;26.79;47.52
17785;BME280;9016;53.582;10.062;2023-05-21T10:33:03;101809.25;;;26.96;47.27
17785;BME280;9016;53.582;10.062;2023-05-21T10:35:32;101801.72;;;26.90;47.25
17785;BME280;9016;53.582;10.062;2023-05-21T10:38:03;101796.41;;;26.81;47.67
17785;BME280;9016;53.582;10.062;2023-05-21T10:40:31;101793.69;;;26.73;47.68
17785;BME280;9016;53.582;10.062;2023-05-21T10:46:15;101799.66;;;26.84;48.34
17785;BME280;9016;53.582;10.062;2023-05-21T10:49:06;101784.59;;;27.04;47.03
17785;BME280;9016;53.582;10.062;2023-05-21T10:51:44;101787.69;;;26.77;47.82
17785;BME280;9016;53.582;10.062;2023-05-21T10:54:31;101781.91;;;26.72;47.88
17785;BME280;9016;53.582;10.062;2023-05-21T10:57:13;101780.50;;;26.52;48.54
17785;BME280;9016;53.582;10.062;2023-05-21T10:59:45;101784.28;;;26.75;48.16
17785;BME280;9016;53.582;10.062;2023-05-21T11:02:14;101784.06;;;26.36;48.72
17785;BME280;9016;53.582;10.062;2023-05-21T11:04:46;101772.44;;;26.34;49.01
17785;BME280;9016;53.582;10.062;2023-05-21T11:07:22;101767.84;;;26.35;49.04
17785;BME280;9016;53.582;10.062;2023-05-21T11:09:51;101777.03;;;26.10;49.87
17785;BME280;9016;53.582;10.062;2023-05-21T11:12:19;101769.25;;;25.97;50.88
17785;BME280;9016;53.582;10.062;2023-05-21T11:14:55;101774.91;;;25.96;50.99
17785;BME280;9016;53.582;10.062;2023-05-21T11:17:37;101778.94;;;26.17;50.30
17785;BME280;9016;53.582;10.062;2023-05-21T11:20:11;101768.31;;;26.06;50.58
17785;BME280;9016;53.582;10.062;2023-05-21T11:22:40;101769.16;;;26.07;50.71
17785;BME280;9016;53.582;10.062;2023-05-21T11:25:09;101768.66;;;26.11;50.60
17785;BME280;9016;53.582;10.062;2023-05-21T11:27:39;101763.69;;;26.07;50.26
17785;BME280;9016;53.582;10.062;2023-05-21T11:30:11;101758.03;;;26.00;51.43
17785;BME280;9016;53.582;10.062;2023-05-21T11:33:16;101755.31;;;26.08;50.58
17785;BME280;9016;53.582;10.062;2023-05-21T11:35:56;101760.97;;;26.07;51.61
17785;BME280;9016;53.582;10.062;2023-05-21T11:38:27;101755.38;;;26.24;50.45
17785;BME280;9016;53.582;10.062;2023-05-21T11:41:00;101764.56;;;26.07;50.89
17785;BME280;9016;53.582;10.062;2023-05-21T11:43:28;101756.47;;;25.90;51.52
17785;BME280;9016;53.582;10.062;2023-05-21T11:45:56;101769.44;;;25.88;51.62
17785;BME280;9016;53.582;10.062;2023-05-21T11:48:26;101756.25;;;25.83;51.58
17785;BME280;9016;53.582;10.062;2023-05-21T11:50:59;101753.72;;;25.82;52.06
17785;BME280;9016;53.582;10.062;2023-05-21T11:53:28;101756.97;;;25.85;52.23
17785;BME280;9016;53.582;10.062;2023-05-21T11:55:57;101761.13;;;26.05;51.69
17785;BME280;9016;53.582;10.062;2023-05-21T11:58:25;101754.25;;;26.01;51.92
17785;BME280;9016;53.582;10.062;2023-05-21T12:01:00;101750.84;;;25.91;52.08
17785;BME280;9016;53.582;10.062;2023-05-21T12:03:33;101753.41;;;25.93;52.26
17785;BME280;9016;53.582;10.062;2023-05-21T12:06:05;101752.63;;;26.24;51.45
17785;BME280;9016;53.582;10.062;2023-05-21T12:08:35;101745.28;;;26.25;51.72
17785;BME280;9016;53.582;10.062;2023-05-21T12:11:04;101738.94;;;26.16;51.87
17785;BME280;9016;53.582;10.062;2023-05-21T12:13:36;101744.03;;;26.03;52.44
17785;BME280;9016;53.582;10.062;2023-05-21T12:16:06;101732.47;;;26.09;52.79
17785;BME280;9016;53.582;10.062;2023-05-21T12:18:35;101731.72;;;25.99;52.76
17785;BME280;9016;53.582;10.062;2023-05-21T12:21:05;101734.88;;;26.20;52.90
17785;BME280;9016;53.582;10.062;2023-05-21T12:23:33;101728.88;;;26.25;52.54
17785;BME280;9016;53.582;10.062;2023-05-21T12:26:01;101729.25;;;26.30;51.95
17785;BME280;9016;53.582;10.062;2023-05-21T12:28:31;101732.28;;;26.27;52.48
17785;BME280;9016;53.582;10.062;2023-05-21T12:31:02;101730.06;;;26.55;51.72
17785;BME280;9016;53.582;10.062;2023-05-21T12:33:33;101729.91;;;26.64;51.31
17785;BME280;9016;53.582;10.062;2023-05-21T12:36:01;101728.53;;;26.84;51.42
17785;BME280;9016;53.582;10.062;2023-05-21T12:38:31;101725.66;;;26.62;51.66
17785;BME280;9016;53.582;10.062;2023-05-21T12:41:02;101734.38;;;26.81;51.20
17785;BME280;9016;53.582;10.062;2023-05-21T12:43:31;101732.81;;;26.79;51.27
17785;BME280;9016;53.582;10.062;2023-05-21T12:45:59;101722.25;;;26.76;51.50
17785;BME280;9016;53.582;10.062;2023-05-21T12:48:27;101725.47;;;26.79;51.09
17785;BME280;9016;53.582;10.062;2023-05-21T12:50:57;101720.69;;;26.65;51.44
17785;BME280;9016;53.582;10.062;2023-05-21T12:53:36;101715.75;;;26.69;51.59
17785;BME280;9016;53.582;10.062;2023-05-21T12:56:09;101713.00;;;26.77;51.29
17785;BME280;9016;53.582;10.062;2023-05-21T12:58:37;101718.59;;;26.91;51.18
17785;BME280;9016;53.582;10.062;2023-05-21T13:01:07;101715.22;;;26.89;51.22
17785;BME280;9016;53.582;10.062;2023-05-21T13:03:36;101708.00;;;26.96;50.79
17785;BME280;9016;53.582;10.062;2023-05-21T13:06:06;101716.91;;;26.82;50.67
17785;BME280;9016;53.582;10.062;2023-05-21T13:08:34;101709.94;;;26.80;50.80